Lebanon, Iowa
Current Conditions -  °F | °C
As of 4:55 PM on Saturday 20 Dec 2014 (Local Time) from KORC Reporting Station
Haze Haze  
Wind Chill: 25°   Ceiling: 500
Heat Index: 32°   Visibility: 3mi
Dew Point: 28°   Wind: 8mph
Humidity: 87%   Direction: 170°S
Pressure: 30.05"   Gusts: NA
Location:  43.0841°N, 96.2145°W
Report Text: KORC 202255Z AUTO 17007KT 3SM BR OVC005 00/M02 A3005 RMK AO2
Loading
Personal Weather Stations






























Interactive Weather Map New forecast layout! Learn more

10-Day Weather Forecast

Advertisements
Track Severe Weather on mobile